createdAt,value
2018-12-08T00:01:22.616Z,8.50
2018-12-08T00:04:11.931Z,8.50
2018-12-08T00:07:01.255Z,8.40
2018-12-08T00:09:50.933Z,8.30
2018-12-08T00:12:40.239Z,8.30
2018-12-08T00:15:29.399Z,8.20
2018-12-08T00:18:18.751Z,8.20
2018-12-08T00:21:08.440Z,8.20
2018-12-08T00:23:57.731Z,8.20
2018-12-08T00:26:47.011Z,8.10
2018-12-08T00:29:36.341Z,8.00
2018-12-08T00:32:25.643Z,7.90
2018-12-08T00:35:14.913Z,7.80
2018-12-08T00:38:04.215Z,7.70
2018-12-08T00:40:53.873Z,7.60
2018-12-08T00:46:39.610Z,7.50
2018-12-08T00:49:29.283Z,7.50
2018-12-08T00:52:18.652Z,7.50
2018-12-08T00:55:08.102Z,7.50
2018-12-08T00:57:57.298Z,7.50
2018-12-08T01:00:46.980Z,7.50
2018-12-08T01:03:36.244Z,7.50
2018-12-08T01:06:25.877Z,7.40
2018-12-08T01:09:15.114Z,7.40
2018-12-08T01:11:45.991Z,7.40
2018-12-08T01:14:35.276Z,7.30
2018-12-08T01:17:24.551Z,7.30
2018-12-08T01:20:13.946Z,7.20
2018-12-08T01:23:03.218Z,7.10
2018-12-08T01:25:52.873Z,7.10
2018-12-08T01:28:42.119Z,7.00
2018-12-08T01:31:31.396Z,6.90
2018-12-08T01:34:21.075Z,6.90
2018-12-08T01:37:10.345Z,6.90
2018-12-08T01:40:00.033Z,6.90
2018-12-08T01:42:57.708Z,6.90
2018-12-08T01:45:46.981Z,6.90
2018-12-08T01:48:36.669Z,6.90
2018-12-08T01:51:25.960Z,6.80
2018-12-08T01:54:15.625Z,6.80
2018-12-08T01:57:05.237Z,6.80
2018-12-08T01:59:54.923Z,6.70
2018-12-08T02:02:44.208Z,6.70
2018-12-08T02:05:33.881Z,6.60
2018-12-08T02:08:23.172Z,6.50
2018-12-08T02:11:12.526Z,6.50
2018-12-08T02:14:01.945Z,6.50
2018-12-08T02:16:51.674Z,6.40
2018-12-08T02:19:41.294Z,6.50
2018-12-08T02:22:30.619Z,6.50
2018-12-08T02:25:19.912Z,6.60
2018-12-08T02:28:09.288Z,6.60
2018-12-08T02:30:59.009Z,6.60
2018-12-08T02:33:48.252Z,6.60
2018-12-08T02:36:37.943Z,6.50
2018-12-08T02:39:27.586Z,6.50
2018-12-08T02:42:17.302Z,6.40
2018-12-08T02:48:35.316Z,6.30
2018-12-08T02:51:24.689Z,6.20
2018-12-08T02:54:13.927Z,6.10
2018-12-08T02:57:03.612Z,6.10
2018-12-08T02:59:52.868Z,6.00
2018-12-08T03:02:42.589Z,6.00
2018-12-08T03:05:32.100Z,6.00
2018-12-08T03:08:03.121Z,6.00
2018-12-08T03:10:52.432Z,6.10
2018-12-08T03:13:42.091Z,6.10
2018-12-08T03:16:12.960Z,6.10
2018-12-08T03:18:43.867Z,6.10
2018-12-08T03:21:33.422Z,6.20
2018-12-08T03:24:22.749Z,6.10
2018-12-08T03:27:12.037Z,6.20
2018-12-08T03:30:01.336Z,6.20
2018-12-08T03:32:50.646Z,6.10
2018-12-08T03:35:40.240Z,6.10
2018-12-08T03:38:29.948Z,6.10
2018-12-08T03:41:19.563Z,6.00
2018-12-08T03:44:09.282Z,6.00
2018-12-08T03:46:58.558Z,6.00
2018-12-08T03:49:47.866Z,5.90
2018-12-08T03:52:37.492Z,5.80
2018-12-08T03:55:27.124Z,5.80
2018-12-08T03:58:16.366Z,5.80
2018-12-08T04:01:06.173Z,5.70
2018-12-08T04:03:55.549Z,5.70
2018-12-08T04:06:45.228Z,5.70
2018-12-08T04:09:34.536Z,5.60
2018-12-08T04:12:24.178Z,5.50
2018-12-08T04:15:13.518Z,5.40
2018-12-08T04:18:03.296Z,5.20
2018-12-08T04:20:52.592Z,4.90
2018-12-08T04:23:42.274Z,4.70
2018-12-08T04:26:32.030Z,4.60
2018-12-08T04:29:21.612Z,4.50
2018-12-08T04:32:11.316Z,4.40
2018-12-08T04:35:01.067Z,4.40
2018-12-08T04:37:50.775Z,4.40
2018-12-08T04:40:21.430Z,4.50
2018-12-08T04:43:10.687Z,4.50
2018-12-08T04:46:00.320Z,4.50
2018-12-08T04:48:49.571Z,4.50
2018-12-08T04:51:38.816Z,4.50
2018-12-08T04:54:28.193Z,4.50
2018-12-08T04:57:17.856Z,4.70
2018-12-08T05:00:07.696Z,4.80
2018-12-08T05:02:57.020Z,4.90
2018-12-08T05:05:46.623Z,4.90
2018-12-08T05:08:36.267Z,4.90
2018-12-08T05:11:25.945Z,5.00
2018-12-08T05:14:15.516Z,4.90
2018-12-08T05:17:04.822Z,4.90
2018-12-08T05:19:54.536Z,4.90
2018-12-08T05:22:43.847Z,4.90
2018-12-08T05:25:14.793Z,4.90
2018-12-08T05:27:45.308Z,4.90
2018-12-08T05:30:34.584Z,4.90
2018-12-08T05:33:24.250Z,4.90
2018-12-08T05:36:13.542Z,4.80
2018-12-08T05:42:13.571Z,4.80
2018-12-08T05:44:44.679Z,5.00
2018-12-08T05:47:34.056Z,5.00
2018-12-08T05:50:23.836Z,5.00
2018-12-08T05:53:13.605Z,5.10
2018-12-08T05:56:02.842Z,5.20
2018-12-08T05:58:52.040Z,5.20
2018-12-08T06:01:41.704Z,5.20
2018-12-08T06:04:31.279Z,5.20
2018-12-08T06:07:20.588Z,5.20
2018-12-08T06:10:10.245Z,5.20
2018-12-08T06:12:59.591Z,5.20
2018-12-08T06:15:48.846Z,5.20
2018-12-08T06:18:38.476Z,5.10
2018-12-08T06:21:46.824Z,5.10
2018-12-08T06:24:36.078Z,5.00
2018-12-08T06:33:02.583Z,5.10
2018-12-08T06:35:52.083Z,5.00
2018-12-08T06:38:41.864Z,4.90
2018-12-08T06:41:31.425Z,4.90
2018-12-08T06:44:20.688Z,4.90
2018-12-08T06:47:09.989Z,4.80
2018-12-08T06:49:59.247Z,4.80
2018-12-08T06:52:48.984Z,4.80
2018-12-08T06:55:38.727Z,4.80
2018-12-08T06:58:28.425Z,4.90
2018-12-08T07:01:18.008Z,4.90
2018-12-08T07:04:07.328Z,4.90
2018-12-08T07:06:56.952Z,4.80
2018-12-08T07:09:46.231Z,4.80
2018-12-08T07:12:35.454Z,4.80
2018-12-08T07:15:24.813Z,4.90
2018-12-08T07:18:14.099Z,4.90
2018-12-08T07:21:03.349Z,4.90
2018-12-08T07:23:52.992Z,5.00
2018-12-08T07:26:42.252Z,5.00
2018-12-08T07:29:31.835Z,5.00
2018-12-08T07:32:21.144Z,5.10
2018-12-08T07:34:51.621Z,5.10
2018-12-08T07:37:41.324Z,5.30
2018-12-08T07:40:30.985Z,5.40
2018-12-08T07:43:20.225Z,5.40
2018-12-08T07:46:09.479Z,5.50
2018-12-08T07:48:59.196Z,5.50
2018-12-08T07:51:48.863Z,5.60
2018-12-08T07:54:38.595Z,5.70
2018-12-08T07:57:28.376Z,5.70
2018-12-08T08:00:17.771Z,5.70
2018-12-08T08:03:07.496Z,5.60
2018-12-08T08:05:57.348Z,5.70
2018-12-08T08:08:47.016Z,5.90
2018-12-08T08:11:36.608Z,5.90
2018-12-08T08:14:26.032Z,6.10
2018-12-08T08:17:44.771Z,6.20
2018-12-08T08:20:11.687Z,6.30
2018-12-08T08:33:50.827Z,6.40
2018-12-08T08:54:35.059Z,6.50
2018-12-08T08:59:55.426Z,6.70
2018-12-08T09:02:39.243Z,6.60
2018-12-08T09:05:21.208Z,6.60
2018-12-08T09:10:51.163Z,6.60
2018-12-08T09:13:35.000Z,6.70
2018-12-08T09:23:01.000Z,7.00
2018-12-08T09:25:15.268Z,7.00
2018-12-08T09:28:02.645Z,7.10
2018-12-08T09:30:43.443Z,7.20
2018-12-08T09:33:28.898Z,7.30
2018-12-08T09:36:10.513Z,7.30
2018-12-08T09:38:52.122Z,7.30
2018-12-08T09:41:33.808Z,7.30
2018-12-08T09:44:15.152Z,7.20
2018-12-08T09:46:56.772Z,7.20
2018-12-08T09:49:38.550Z,7.20
2018-12-08T09:52:20.041Z,7.20
2018-12-08T09:55:01.219Z,7.10
2018-12-08T09:57:44.076Z,7.10
2018-12-08T10:00:25.999Z,7.20
2018-12-08T10:03:07.591Z,7.30
2018-12-08T10:05:50.065Z,7.20
2018-12-08T10:08:32.192Z,7.20
2018-12-08T10:11:13.854Z,7.30
2018-12-08T10:13:56.233Z,7.20
2018-12-08T10:16:37.936Z,7.30
2018-12-08T10:19:19.729Z,7.40
2018-12-08T10:22:00.967Z,7.40
2018-12-08T10:24:42.402Z,7.40
2018-12-08T10:27:23.516Z,7.50
2018-12-08T10:30:04.751Z,7.50
2018-12-08T10:32:45.919Z,7.50
2018-12-08T10:35:27.367Z,7.40
2018-12-08T10:38:12.629Z,7.50
2018-12-08T10:40:54.684Z,7.60
2018-12-08T10:43:36.909Z,7.50
2018-12-08T10:46:18.872Z,7.60
2018-12-08T10:49:01.488Z,7.50
2018-12-08T10:51:43.921Z,7.50
2018-12-08T10:54:25.368Z,7.50
2018-12-08T11:03:23.145Z,8.20
2018-12-08T11:06:05.167Z,8.10
2018-12-08T11:08:47.140Z,8.00
2018-12-08T11:11:28.472Z,7.90
2018-12-08T11:14:11.340Z,7.80
2018-12-08T11:16:53.517Z,7.80
2018-12-08T11:19:35.047Z,7.80
2018-12-08T11:22:17.193Z,7.80
2018-12-08T11:24:59.687Z,7.80
2018-12-08T11:27:41.478Z,7.80
2018-12-08T11:30:23.250Z,7.80
2018-12-08T11:33:04.978Z,7.70
2018-12-08T11:35:49.716Z,7.70
2018-12-08T11:38:20.929Z,7.70
2018-12-08T11:41:10.482Z,7.70
2018-12-08T11:44:00.692Z,7.90
2018-12-08T11:46:50.579Z,8.00
2018-12-08T11:49:40.569Z,8.10
2018-12-08T11:55:41.647Z,8.30
2018-12-08T11:58:31.358Z,8.40
2018-12-08T12:04:49.476Z,8.30
2018-12-08T12:07:39.483Z,8.20
2018-12-08T12:10:29.653Z,8.10
2018-12-08T12:13:20.350Z,8.10
2018-12-08T12:16:10.191Z,8.00
2018-12-08T12:19:02.438Z,7.90
2018-12-08T12:21:51.868Z,7.90
2018-12-08T12:24:41.845Z,8.00
2018-12-08T12:27:31.358Z,8.00
2018-12-08T12:30:21.453Z,8.00
2018-12-08T12:33:11.538Z,8.00
2018-12-08T12:36:01.943Z,8.10
2018-12-08T12:38:52.035Z,8.00
2018-12-08T12:41:42.828Z,8.00
2018-12-08T12:44:32.516Z,7.90
2018-12-08T12:47:24.840Z,7.90
2018-12-08T12:50:40.769Z,7.90
2018-12-08T12:53:26.949Z,7.80
2018-12-08T12:56:16.878Z,7.80
2018-12-08T12:59:06.690Z,7.80
2018-12-08T13:01:55.959Z,7.90
2018-12-08T13:04:45.556Z,7.90
2018-12-08T13:07:34.860Z,7.90
2018-12-08T13:10:24.121Z,8.00
2018-12-08T13:13:13.628Z,7.90
2018-12-08T13:16:02.947Z,8.00
2018-12-08T13:18:52.333Z,8.00
2018-12-08T13:21:42.573Z,8.00
2018-12-08T13:27:01.943Z,8.00
2018-12-08T13:29:51.179Z,8.00
2018-12-08T13:32:40.824Z,8.00
2018-12-08T13:35:49.265Z,8.00
2018-12-08T13:38:38.573Z,7.90
2018-12-08T13:41:27.971Z,7.90
2018-12-08T13:44:36.621Z,7.90
2018-12-08T13:47:26.331Z,7.90
2018-12-08T13:50:15.595Z,7.90
2018-12-08T13:53:05.308Z,7.90
2018-12-08T13:55:54.878Z,7.90
2018-12-08T13:58:44.591Z,7.80
2018-12-08T14:01:33.923Z,7.80
2018-12-08T14:04:23.524Z,7.80
2018-12-08T14:07:12.781Z,7.80
2018-12-08T14:10:02.018Z,7.80
2018-12-08T14:12:51.297Z,7.80
2018-12-08T14:15:40.559Z,7.80
2018-12-08T14:18:29.804Z,7.90
2018-12-08T14:21:00.620Z,7.80
2018-12-08T14:23:50.332Z,7.80
2018-12-08T14:26:39.644Z,7.80
2018-12-08T14:29:29.423Z,7.80
2018-12-08T14:35:26.965Z,7.70
2018-12-08T14:38:16.680Z,7.70
2018-12-08T14:41:05.897Z,7.70
2018-12-08T14:43:55.420Z,7.60
2018-12-08T14:46:44.661Z,7.50
2018-12-08T14:49:34.419Z,7.40
2018-12-08T14:52:23.674Z,7.40
2018-12-08T14:55:12.940Z,7.40
2018-12-08T14:58:03.832Z,7.40
2018-12-08T15:00:53.676Z,7.40
2018-12-08T15:03:43.303Z,7.50
2018-12-08T15:06:32.656Z,7.40
2018-12-08T15:09:03.330Z,7.40
2018-12-08T15:11:52.721Z,7.30
2018-12-08T15:14:42.364Z,7.30
2018-12-08T15:17:31.712Z,7.20
2018-12-08T15:20:20.920Z,7.20
2018-12-08T15:23:10.663Z,7.10
2018-12-08T15:25:41.680Z,7.10
2018-12-08T15:28:30.940Z,7.10
2018-12-08T15:31:20.291Z,7.20
2018-12-08T15:34:09.665Z,7.20
2018-12-08T15:36:58.872Z,7.10
2018-12-08T15:39:48.181Z,7.20
2018-12-08T15:42:39.429Z,7.10
2018-12-08T15:45:28.770Z,7.10
2018-12-08T15:51:34.084Z,7.10
2018-12-08T15:54:23.761Z,7.10
2018-12-08T15:57:50.627Z,7.10
2018-12-08T16:00:40.308Z,7.10
2018-12-08T16:03:29.521Z,7.10
2018-12-08T16:06:18.776Z,7.10
2018-12-08T16:09:08.547Z,7.20
2018-12-08T16:11:57.857Z,7.10
2018-12-08T16:14:47.479Z,7.10
2018-12-08T16:17:37.593Z,7.10
2018-12-08T16:20:27.261Z,7.10
2018-12-08T16:26:28.145Z,7.10
2018-12-08T16:29:17.755Z,7.10
2018-12-08T16:32:07.373Z,7.10
2018-12-08T16:35:15.388Z,7.10
2018-12-08T16:38:05.241Z,7.10
2018-12-08T16:43:52.116Z,7.10
2018-12-08T16:46:41.405Z,7.10
2018-12-08T16:52:26.237Z,7.30
2018-12-08T16:55:15.911Z,7.30
2018-12-08T16:58:06.804Z,7.30
2018-12-08T17:00:56.934Z,7.20
2018-12-08T17:03:46.617Z,7.20
2018-12-08T17:06:36.179Z,7.20
2018-12-08T17:09:25.458Z,7.20
2018-12-08T17:12:15.089Z,7.30
2018-12-08T17:15:04.494Z,7.20
2018-12-08T17:17:53.781Z,7.20
2018-12-08T17:20:46.011Z,7.20
2018-12-08T17:23:35.691Z,7.20
2018-12-08T17:26:25.084Z,7.20
2018-12-08T17:29:14.445Z,7.10
2018-12-08T17:32:04.230Z,7.10
2018-12-08T17:34:53.956Z,7.10
2018-12-08T17:37:43.713Z,7.00
2018-12-08T17:40:36.308Z,7.00
2018-12-08T17:43:26.092Z,7.00
2018-12-08T17:48:53.227Z,7.10
2018-12-08T17:51:29.968Z,7.10
2018-12-08T17:54:23.359Z,7.10
2018-12-08T17:57:12.548Z,7.10
2018-12-08T18:00:01.865Z,7.10
2018-12-08T18:02:51.477Z,7.10
2018-12-08T18:05:41.156Z,7.10
2018-12-08T18:08:30.906Z,7.10
2018-12-08T18:11:20.156Z,7.20
2018-12-08T18:14:10.161Z,7.10
2018-12-08T18:16:59.508Z,7.20
2018-12-08T18:20:35.289Z,7.20
2018-12-08T18:22:43.795Z,7.20
2018-12-08T18:25:35.453Z,7.20
2018-12-08T18:28:25.137Z,7.20
2018-12-08T18:31:14.921Z,7.30
2018-12-08T18:34:04.323Z,7.30
2018-12-08T18:36:54.035Z,7.40
2018-12-08T18:39:43.835Z,7.40
2018-12-08T18:42:33.240Z,7.40
2018-12-08T18:45:23.592Z,7.40
2018-12-08T18:48:13.453Z,7.40
2018-12-08T18:51:06.135Z,7.50
2018-12-08T18:53:55.539Z,7.40
2018-12-08T18:56:45.501Z,7.50
2018-12-08T18:59:35.447Z,7.60
2018-12-08T19:02:43.587Z,7.60
2018-12-08T19:08:35.063Z,7.60
2018-12-08T19:11:25.581Z,7.70
2018-12-08T19:14:15.602Z,7.60
2018-12-08T19:17:05.520Z,7.70
2018-12-08T19:19:55.949Z,7.70
2018-12-08T19:22:45.697Z,7.80
2018-12-08T19:25:35.663Z,7.80
2018-12-08T19:28:25.112Z,7.80
2018-12-08T19:31:14.725Z,7.80
2018-12-08T19:34:04.556Z,7.80
2018-12-08T19:36:53.955Z,7.80
2018-12-08T19:39:43.853Z,7.90
2018-12-08T19:42:33.559Z,7.90
2018-12-08T19:45:04.416Z,7.90
2018-12-08T19:47:53.931Z,7.90
2018-12-08T19:50:45.220Z,7.90
2018-12-08T19:53:16.137Z,7.80
2018-12-08T19:56:05.677Z,7.90
2018-12-08T19:58:55.618Z,7.90
2018-12-08T20:01:45.341Z,8.00
2018-12-08T20:04:35.289Z,7.90
2018-12-08T20:07:24.896Z,7.90
2018-12-08T20:10:14.830Z,7.80
2018-12-08T20:16:14.448Z,7.90
2018-12-08T20:19:03.977Z,8.00
2018-12-08T20:21:53.468Z,7.90
2018-12-08T20:24:43.102Z,7.90
2018-12-08T20:27:33.038Z,7.80
2018-12-08T20:30:22.921Z,7.80
2018-12-08T20:33:12.642Z,7.80
2018-12-08T20:36:02.262Z,7.80
2018-12-08T20:38:52.021Z,7.70
2018-12-08T20:41:41.578Z,7.80
2018-12-08T20:44:50.273Z,7.70
2018-12-08T20:47:40.128Z,7.70
2018-12-08T20:50:29.651Z,7.70
2018-12-08T20:53:19.567Z,7.60
2018-12-08T20:56:09.095Z,7.70
2018-12-08T20:58:58.630Z,7.70
2018-12-08T21:01:48.522Z,7.70
2018-12-08T21:04:38.007Z,7.70
2018-12-08T21:07:27.511Z,7.70
2018-12-08T21:10:17.497Z,7.70
2018-12-08T21:13:07.079Z,7.70
2018-12-08T21:15:56.801Z,7.70
2018-12-08T21:18:46.763Z,7.70
2018-12-08T21:21:36.362Z,7.80
2018-12-08T21:24:26.230Z,7.90
2018-12-08T21:26:57.689Z,7.90
2018-12-08T21:29:47.586Z,7.90
2018-12-08T21:32:37.386Z,7.90
2018-12-08T21:35:47.331Z,7.90
2018-12-08T21:38:44.839Z,8.00
2018-12-08T21:41:37.306Z,8.10
2018-12-08T21:44:28.051Z,8.10
2018-12-08T21:47:18.860Z,8.10
2018-12-08T21:50:12.058Z,8.00
2018-12-08T21:53:02.371Z,8.00
2018-12-08T21:55:33.957Z,8.10
2018-12-08T21:58:16.079Z,8.10
2018-12-08T22:00:58.515Z,8.10
2018-12-08T22:03:39.761Z,8.10
2018-12-08T22:06:21.661Z,8.20
2018-12-08T22:09:04.298Z,8.10
2018-12-08T22:11:47.421Z,8.20
2018-12-08T22:14:31.395Z,8.20
2018-12-08T22:17:13.287Z,8.30
2018-12-08T22:19:55.743Z,8.20
2018-12-08T22:22:43.418Z,8.20
2018-12-08T22:25:27.505Z,8.30
2018-12-08T22:28:09.959Z,8.20
2018-12-08T22:30:51.585Z,8.30
2018-12-08T22:33:33.166Z,8.40
2018-12-08T22:36:15.370Z,8.30
2018-12-08T22:38:56.514Z,8.20
2018-12-08T22:41:38.139Z,8.10
2018-12-08T22:44:19.815Z,8.10
2018-12-08T22:47:01.675Z,8.00
2018-12-08T22:49:43.669Z,8.00
2018-12-08T22:52:25.376Z,8.00
2018-12-08T22:55:07.106Z,8.10
2018-12-08T22:57:48.934Z,8.10
2018-12-08T23:00:30.074Z,8.20
2018-12-08T23:03:11.633Z,8.10
2018-12-08T23:05:53.491Z,8.10
2018-12-08T23:08:35.679Z,8.10
2018-12-08T23:11:16.880Z,8.10
2018-12-08T23:13:58.777Z,8.10
2018-12-08T23:16:43.160Z,8.10
2018-12-08T23:19:24.666Z,8.00
2018-12-08T23:22:34.926Z,8.00
2018-12-08T23:25:04.135Z,7.90
2018-12-08T23:27:33.361Z,7.90
2018-12-08T23:30:02.539Z,7.80
2018-12-08T23:32:31.674Z,7.80
2018-12-08T23:35:00.774Z,7.80
2018-12-08T23:37:29.958Z,7.80
2018-12-08T23:39:59.169Z,7.90
2018-12-08T23:42:28.333Z,7.90
2018-12-08T23:44:57.446Z,8.00
2018-12-08T23:47:26.678Z,8.20
2018-12-08T23:49:55.813Z,8.30
2018-12-08T23:52:24.918Z,8.30
2018-12-08T23:54:54.070Z,8.40
2018-12-08T23:57:23.242Z,8.20
2018-12-08T23:59:52.360Z,8.00
